createdAt,value
2023-01-18T00:03:42.684Z,3.23
2023-01-18T00:08:44.717Z,3.29
2023-01-18T00:13:48.236Z,3.38
2023-01-18T00:18:52.703Z,3.41
2023-01-18T00:23:56.327Z,3.46
2023-01-18T00:28:58.221Z,3.51
2023-01-18T00:34:00.129Z,3.54
2023-01-18T00:39:02.181Z,3.59
2023-01-18T00:44:04.271Z,3.65
2023-01-18T00:49:06.134Z,3.70
2023-01-18T00:54:08.028Z,3.71
2023-01-18T00:59:09.959Z,3.71
2023-01-18T01:04:30.198Z,3.68
2023-01-18T01:09:32.035Z,3.71
2023-01-18T01:14:55.743Z,3.70
2023-01-18T01:20:16.389Z,3.65
2023-01-18T01:25:37.086Z,3.62
2023-01-18T01:30:39.009Z,3.63
2023-01-18T01:35:41.005Z,3.69
2023-01-18T01:40:42.831Z,3.70
2023-01-18T01:45:44.771Z,3.59
2023-01-18T01:50:46.792Z,3.43
2023-01-18T01:55:48.903Z,3.29
2023-01-18T02:00:51.102Z,3.35
2023-01-18T02:05:59.160Z,3.42
2023-01-18T02:11:01.073Z,3.49
2023-01-18T02:16:14.683Z,3.47
2023-01-18T02:21:23.816Z,3.41
2023-01-18T02:26:47.519Z,3.21
2023-01-18T02:32:02.224Z,3.19
2023-01-18T02:37:24.818Z,3.20
2023-01-18T02:42:47.445Z,3.33
2023-01-18T02:47:50.644Z,3.45
2023-01-18T02:52:53.723Z,3.36
2023-01-18T02:58:03.307Z,3.26
2023-01-18T03:03:07.356Z,3.10
2023-01-18T03:08:22.252Z,3.14
2023-01-18T03:13:31.031Z,3.33
2023-01-18T03:19:01.807Z,3.27
2023-01-18T03:24:07.424Z,3.32
2023-01-18T03:29:29.477Z,3.43
2023-01-18T03:34:37.855Z,3.54
2023-01-18T03:39:44.643Z,3.60
2023-01-18T03:44:58.689Z,3.61
2023-01-18T03:50:01.132Z,3.57
2023-01-18T03:55:06.340Z,3.50
2023-01-18T04:00:09.939Z,3.54
2023-01-18T04:05:15.939Z,3.55
2023-01-18T04:10:17.763Z,3.54
2023-01-18T04:15:20.403Z,3.50
2023-01-18T04:20:23.465Z,3.47
2023-01-18T04:25:25.392Z,3.47
2023-01-18T04:30:27.528Z,3.46
2023-01-18T04:35:29.475Z,3.40
2023-01-18T04:40:31.321Z,3.38
2023-01-18T04:45:33.593Z,3.36
2023-01-18T04:50:38.229Z,3.38
2023-01-18T04:55:40.058Z,3.36
2023-01-18T05:00:41.958Z,3.37
2023-01-18T05:05:43.845Z,3.37
2023-01-18T05:10:45.698Z,3.36
2023-01-18T05:15:48.105Z,3.19
2023-01-18T05:20:50.029Z,3.22
2023-01-18T05:25:58.806Z,3.26
2023-01-18T05:31:00.742Z,3.24
2023-01-18T05:36:02.787Z,2.97
2023-01-18T05:41:04.846Z,2.83
2023-01-18T05:46:06.794Z,2.93
2023-01-18T05:51:11.244Z,2.96
2023-01-18T05:56:13.113Z,2.97
2023-01-18T06:01:14.973Z,2.88
2023-01-18T06:06:16.994Z,2.85
2023-01-18T06:11:18.798Z,2.77
2023-01-18T06:16:20.711Z,2.87
2023-01-18T06:21:22.611Z,2.87
2023-01-18T06:26:24.425Z,2.86
2023-01-18T06:31:26.270Z,2.92
2023-01-18T06:36:29.903Z,3.01
2023-01-18T06:41:31.943Z,2.99
2023-01-18T06:46:33.877Z,2.89
2023-01-18T06:51:35.739Z,2.93
2023-01-18T06:56:38.169Z,2.95
2023-01-18T07:01:40.018Z,3.06
2023-01-18T07:06:41.811Z,3.17
2023-01-18T07:11:43.661Z,3.28
2023-01-18T07:16:45.535Z,3.32
2023-01-18T07:21:47.511Z,3.34
2023-01-18T07:26:49.547Z,3.32
2023-01-18T07:31:51.705Z,3.35
2023-01-18T07:36:54.481Z,3.41
2023-01-18T07:41:56.364Z,3.42
2023-01-18T07:46:58.672Z,3.54
2023-01-18T07:52:00.619Z,3.58
2023-01-18T07:57:02.449Z,3.58
2023-01-18T08:02:04.496Z,3.58
2023-01-18T08:07:06.483Z,3.68
2023-01-18T08:12:11.522Z,3.75
2023-01-18T08:17:13.362Z,3.81
2023-01-18T08:22:15.218Z,3.81
2023-01-18T08:27:17.041Z,3.77
2023-01-18T08:32:19.215Z,3.77
2023-01-18T08:37:23.832Z,3.80
2023-01-18T08:42:26.638Z,3.80
2023-01-18T08:47:28.520Z,3.77
2023-01-18T08:52:30.399Z,3.88
2023-01-18T08:57:32.797Z,3.89
2023-01-18T09:02:34.699Z,3.93
2023-01-18T09:07:36.903Z,3.95
2023-01-18T09:12:39.054Z,4.01
2023-01-18T09:17:40.914Z,4.08
2023-01-18T09:22:44.661Z,4.12
2023-01-18T09:27:46.780Z,4.09
2023-01-18T09:32:48.641Z,4.10
2023-01-18T09:37:51.128Z,4.18
2023-01-18T09:42:53.433Z,4.25
2023-01-18T09:48:05.730Z,4.28
2023-01-18T09:53:21.108Z,4.30
2023-01-18T09:58:44.728Z,4.31
2023-01-18T10:03:57.970Z,4.27
2023-01-18T10:09:06.984Z,4.31
2023-01-18T10:14:18.215Z,4.28
2023-01-18T10:19:27.577Z,4.28
2023-01-18T10:24:42.768Z,4.35
2023-01-18T10:30:06.843Z,4.36
2023-01-18T10:35:26.314Z,4.24
2023-01-18T10:40:28.175Z,4.29
2023-01-18T10:45:34.212Z,4.34
2023-01-18T10:50:39.938Z,4.35
2023-01-18T10:55:51.373Z,4.38
2023-01-18T11:00:55.184Z,4.42
2023-01-18T11:06:05.311Z,4.48
2023-01-18T11:11:15.244Z,4.53
2023-01-18T11:16:20.987Z,4.52
2023-01-18T11:21:23.845Z,4.48
2023-01-18T11:26:26.141Z,4.45
2023-01-18T11:31:31.458Z,4.45
2023-01-18T11:36:35.286Z,4.31
2023-01-18T11:41:37.147Z,4.34
2023-01-18T11:46:48.339Z,4.21
2023-01-18T11:51:50.130Z,4.26
2023-01-18T11:56:55.987Z,4.38
2023-01-18T12:02:25.679Z,4.38
2023-01-18T12:07:50.498Z,4.40
2023-01-18T12:12:55.394Z,4.44
2023-01-18T12:18:19.487Z,4.35
2023-01-18T12:24:09.016Z,4.36
2023-01-18T12:29:45.884Z,4.37
2023-01-18T12:35:22.643Z,4.33
2023-01-18T12:41:12.002Z,4.30
2023-01-18T12:46:20.739Z,4.12
2023-01-18T12:51:25.714Z,4.22
2023-01-18T12:56:39.569Z,4.16
2023-01-18T13:01:52.080Z,4.13
2023-01-18T13:06:59.467Z,4.10
2023-01-18T13:12:05.213Z,4.09
2023-01-18T13:17:26.195Z,3.98
2023-01-18T13:22:54.195Z,3.99
2023-01-18T13:28:23.448Z,4.05
2023-01-18T13:33:28.112Z,4.20
2023-01-18T13:38:41.388Z,4.16
2023-01-18T13:43:44.129Z,4.07
2023-01-18T13:49:02.522Z,4.08
2023-01-18T13:54:04.479Z,4.11
2023-01-18T13:59:12.268Z,4.09
2023-01-18T14:04:33.613Z,4.04
2023-01-18T14:09:48.418Z,3.86
2023-01-18T14:14:59.464Z,3.87
2023-01-18T14:20:20.065Z,3.95
2023-01-18T14:25:33.351Z,4.03
2023-01-18T14:30:38.663Z,4.02
2023-01-18T14:35:51.957Z,3.97
2023-01-18T14:40:58.057Z,3.93
2023-01-18T14:46:05.163Z,3.91
2023-01-18T14:51:07.232Z,3.90
2023-01-18T14:56:20.141Z,3.83
2023-01-18T15:01:37.142Z,3.75
2023-01-18T15:06:46.795Z,3.79
2023-01-18T15:11:50.831Z,3.81
2023-01-18T15:16:55.280Z,3.87
2023-01-18T15:22:00.538Z,3.82
2023-01-18T15:27:03.412Z,3.75
2023-01-18T15:32:08.519Z,3.72
2023-01-18T15:37:32.614Z,3.70
2023-01-18T15:42:47.781Z,3.57
2023-01-18T15:47:59.826Z,3.56
2023-01-18T15:53:12.343Z,3.67
2023-01-18T15:58:27.530Z,3.67
2023-01-18T16:03:39.592Z,3.59
2023-01-18T16:08:59.607Z,3.62
2023-01-18T16:14:02.504Z,3.55
2023-01-18T16:19:08.062Z,3.54
2023-01-18T16:24:38.874Z,3.64
2023-01-18T16:29:58.433Z,3.73
2023-01-18T16:35:01.862Z,3.70
2023-01-18T16:40:06.324Z,3.63
2023-01-18T16:45:14.310Z,3.54
2023-01-18T16:50:17.961Z,3.49
2023-01-18T16:55:20.040Z,3.56
2023-01-18T17:00:30.911Z,3.58
2023-01-18T17:05:32.963Z,3.59
2023-01-18T17:10:40.132Z,3.63
2023-01-18T17:15:44.006Z,3.69
2023-01-18T17:20:45.899Z,3.63
2023-01-18T17:25:48.124Z,3.59
2023-01-18T17:30:50.341Z,3.49
2023-01-18T17:35:53.735Z,3.47
2023-01-18T17:40:55.676Z,3.53
2023-01-18T17:46:01.444Z,3.52
2023-01-18T17:51:12.811Z,3.52
2023-01-18T17:56:18.345Z,3.55
2023-01-18T18:01:20.364Z,3.52
2023-01-18T18:06:30.760Z,3.45
2023-01-18T18:11:33.653Z,3.42
2023-01-18T18:16:42.744Z,3.46
2023-01-18T18:21:47.989Z,3.35
2023-01-18T18:26:49.921Z,3.34
2023-01-18T18:31:52.368Z,3.28
2023-01-18T18:36:54.237Z,3.27
2023-01-18T18:41:56.381Z,3.16
2023-01-18T18:46:58.199Z,3.16
2023-01-18T18:52:00.346Z,2.98
2023-01-18T18:57:03.931Z,2.83
2023-01-18T19:02:06.328Z,2.81
2023-01-18T19:07:08.324Z,2.75
2023-01-18T19:12:10.272Z,2.75
2023-01-18T19:17:18.610Z,2.75
2023-01-18T19:22:27.099Z,2.66
2023-01-18T19:27:28.924Z,2.62
2023-01-18T19:32:30.919Z,2.61
2023-01-18T19:37:33.637Z,2.66
2023-01-18T19:42:35.722Z,2.58
2023-01-18T19:47:37.781Z,2.45
2023-01-18T19:52:40.263Z,2.52
2023-01-18T19:57:42.475Z,2.54
2023-01-18T20:02:44.697Z,2.46
2023-01-18T20:07:46.694Z,2.44
2023-01-18T20:12:50.081Z,2.31
2023-01-18T20:17:52.001Z,2.46
2023-01-18T20:22:53.952Z,2.48
2023-01-18T20:27:55.899Z,2.50
2023-01-18T20:32:58.385Z,2.60
2023-01-18T20:38:00.587Z,2.63
2023-01-18T20:43:03.045Z,2.69
2023-01-18T20:48:06.152Z,2.76
2023-01-18T20:53:08.239Z,2.82
2023-01-18T20:58:10.050Z,2.89
2023-01-18T21:03:13.726Z,3.01
2023-01-18T21:08:17.525Z,2.98
2023-01-18T21:13:19.381Z,2.90
2023-01-18T21:18:22.256Z,2.89
2023-01-18T21:23:28.047Z,2.86
2023-01-18T21:28:29.924Z,2.84
2023-01-18T21:33:32.082Z,2.80
2023-01-18T21:38:34.200Z,2.73
2023-01-18T21:43:54.646Z,2.72
2023-01-18T21:48:56.537Z,2.61
2023-01-18T21:54:16.465Z,2.60
2023-01-18T21:59:18.240Z,2.65
2023-01-18T22:04:38.902Z,2.50
2023-01-18T22:09:42.725Z,2.23
2023-01-18T22:14:45.840Z,2.00
2023-01-18T22:19:48.546Z,1.92
2023-01-18T22:25:15.355Z,1.94
2023-01-18T22:30:17.530Z,1.86
2023-01-18T22:35:19.394Z,1.80
2023-01-18T22:40:21.231Z,1.79
2023-01-18T22:45:23.371Z,1.77
2023-01-18T22:50:25.321Z,1.72
2023-01-18T22:55:27.141Z,1.61
2023-01-18T23:00:29.053Z,1.53
2023-01-18T23:05:30.892Z,1.45
2023-01-18T23:10:33.678Z,1.31
2023-01-18T23:15:54.141Z,1.15
2023-01-18T23:27:43.749Z,0.98
2023-01-18T23:32:45.593Z,1.05
2023-01-18T23:37:47.425Z,1.06
2023-01-18T23:43:07.998Z,1.08
2023-01-18T23:48:34.137Z,1.13
2023-01-18T23:53:54.795Z,1.16
2023-01-18T23:58:57.492Z,1.11
